Data for 05/27/2007

Time Sea-Level Adjusted Pressure Absolute Pressure Temperature Relative Humidity Dew Point   
(mb) (inHg) (mb) (inHg) (C) (F) (%) (C) (F)
00:05 1016 30 845 24.95 12.5 54.5 52 2.9 37.2
00:10 1016 30 845 24.95 12.4 54.4 52 2.9 37.2
00:15 1016 30 845 24.95 12.4 54.3 53 3.1 37.7
00:20 1016 30 845 24.95 12.5 54.4 52 2.9 37.3
00:25 1016 30 845 24.95 12.3 54.2 56 3.9 39.1
00:30 1016 30 845 24.95 12 53.5 58 4.1 39.3
00:35 1016 30 845 24.95 12 53.5 57 3.7 38.7
00:40 1016 30 845 24.95 12.1 53.7 55 3.5 38.3
00:45 1016 30 845 24.95 12.1 53.8 56 3.6 38.5
00:50 1016 30 845 24.95 12.2 53.9 56 3.6 38.5
00:55 1016 30 845 24.95 12.2 53.9 56 3.7 38.7
01:00 1016 30 845 24.95 12.2 54 56 3.8 38.9
01:05 1016 30 845 24.95 12.3 54.1 56 3.8 38.9
01:10 1016 30 845 24.95 12.3 54.2 57 4 39.2
01:15 1016 30 845 24.95 12.4 54.2 57 4 39.2
01:20 1016 30 845 24.95 12.3 54.1 57 4.1 39.4
01:25 1016 30 845 24.95 12.2 54 57 3.9 39.1
01:30 1016 30 845 24.95 12.3 54.2 56 3.9 39
01:35 1016 30 845 24.95 12.2 54 57 3.9 39.1
01:40 1016 30 845 24.95 12 53.6 59 4.3 39.8
01:45 1016 30 845 24.95 11.8 53.2 61 4.5 40.2
01:50 1016 30 845 24.95 11.5 52.8 61 4.4 39.9
01:55 1016 30 845 24.95 11.4 52.6 62 4.4 39.9
02:00 1016 30 845 24.95 11.3 52.4 63 4.6 40.2
02:05 1016 30 845 24.95 11.1 52.1 63 4.5 40.1
02:10 1016 30 845 24.95 11.1 52.1 64 4.6 40.3
02:15 1016 30 845 24.95 11 51.9 64 4.6 40.3
02:20 1016 30 845 24.95 11 51.8 64 4.4 39.9
02:25 1016 30 845 24.95 11.1 51.9 62 4.1 39.4
02:30 1016 30 845 24.95 11 51.9 63 4.3 39.8
02:35 1015 29.97 845 24.95 10.8 51.5 64 4.4 39.9
02:40 1015 29.97 845 24.95 10.6 51.2 66 4.5 40.1
02:45 1015 29.97 845 24.95 10.5 50.9 66 4.5 40
02:50 1015 29.97 845 24.95 10.6 51.1 64 4.2 39.5
02:55 1015 29.97 844 24.92 11 51.9 61 3.8 38.9
03:00 1015 29.97 844 24.92 11.2 52.1 62 4.2 39.6
03:05 1015 29.97 844 24.92 11.1 52 63 4.3 39.7
03:10 1015 29.97 844 24.92 11.2 52.1 62 4.2 39.6
03:15 1015 29.97 844 24.92 11.1 52 62 4.2 39.5
03:20 1015 29.97 844 24.92 11.1 51.9 61 3.9 39
03:25 1015 29.97 844 24.92 11 51.7 63 4.3 39.7
03:30 1015 29.97 844 24.92 10.8 51.4 64 4.2 39.6
03:35 1015 29.97 844 24.92 10.8 51.4 64 4.2 39.6
03:40 1015 29.97 844 24.92 10.7 51.2 65 4.5 40
03:45 1015 29.97 844 24.92 10.5 51 66 4.5 40
03:50 1015 29.97 844 24.92 10.6 51.1 66 4.5 40.1
03:55 1015 29.97 844 24.92 10.6 51.1 66 4.6 40.4
04:00 1015 29.97 844 24.92 10.5 50.8 66 4.5 40
04:05 1015 29.97 844 24.92 10.5 50.8 66 4.4 39.9
04:10 1015 29.97 844 24.92 10.7 51.2 64 4.3 39.7
04:15 1015 29.97 844 24.92 10.7 51.3 64 4.3 39.8
04:20 1015 29.97 844 24.92 10.7 51.2 65 4.4 39.9
04:25 1015 29.97 844 24.92 10.6 51.1 64 4.2 39.6
04:30 1015 29.97 844 24.92 10.7 51.3 63 4 39.2
04:35 1015 29.97 844 24.92 10.9 51.7 62 4 39.3
04:40 1015 29.97 845 24.95 11 51.8 62 4.1 39.4
04:45 1015 29.97 844 24.92 11 51.8 62 4.1 39.3
04:50 1015 29.97 844 24.92 11 51.9 61 3.9 39.1
04:55 1015 29.97 844 24.92 11.1 51.9 61 3.9 39
05:00 1015 29.97 844 24.92 11 51.8 62 4 39.3
05:05 1015 29.97 844 24.92 10.6 51.1 64 4.1 39.3
05:10 1015 29.97 844 24.92 10.5 50.9 65 4.2 39.6
05:15 1015 29.97 844 24.92 10.5 50.8 63 3.8 38.8
05:20 1015 29.97 844 24.92 10.6 51 63 3.9 39.1
05:25 1015 29.97 844 24.92 10.6 51.1 64 4 39.3
05:30 1015 29.97 844 24.92 10.5 50.9 64 4 39.2
05:35 1015 29.97 844 24.92 9.9 49.7 68 4.3 39.7
05:40 1015 29.97 844 24.92 9.3 48.7 71 4.2 39.6
05:45 1015 29.97 844 24.92 9 48.2 71 4.1 39.3
05:50 1015 29.97 844 24.92 8.9 48.1 71 3.9 39.1
05:55 1015 29.97 844 24.92 9.2 48.6 69 3.8 38.8
06:00 1015 29.97 844 24.92 9.2 48.5 69 3.8 38.9
06:05 1015 29.97 844 24.92 9.1 48.4 69 3.8 38.9
06:10 1015 29.97 844 24.92 9.2 48.6 69 3.9 39.1
06:15 1015 29.97 844 24.92 9.3 48.7 68 3.8 38.8
06:20 1015 29.97 844 24.92 9.1 48.3 69 3.7 38.6
06:25 1015 29.97 844 24.92 9 48.3 69 3.7 38.7
06:30 1015 29.97 844 24.92 9 48.1 70 3.8 38.9
06:35 1015 29.97 844 24.92 9 48.2 70 3.8 38.8
06:40 1015 29.97 844 24.92 9.1 48.3 70 3.9 39.1
06:45 1015 29.97 844 24.92 9 48.2 70 3.9 39
06:50 1015 29.97 844 24.92 9.2 48.6 69 3.8 38.9
06:55 1015 29.97 844 24.92 9.5 49.1 69 4.1 39.4
07:00 1015 29.97 844 24.92 9.6 49.3 69 4.1 39.5
07:05 1015 29.97 844 24.92 9.9 49.7 68 4.2 39.6
07:10 1015 29.97 844 24.92 10.1 50.1 68 4.4 39.9
07:15 1015 29.97 844 24.92 10.3 50.5 67 4.5 40.1
07:20 1015 29.97 844 24.92 10.6 51.1 66 4.6 40.3
07:25 1015 29.97 844 24.92 10.9 51.6 65 4.6 40.2
07:30 1015 29.97 844 24.92 11.2 52.2 65 4.9 40.7
07:35 1015 29.97 844 24.92 11.5 52.6 64 4.9 40.8
07:40 1015 29.97 844 24.92 12 53.5 62 4.9 40.8
07:45 1015 29.97 844 24.92 12.1 53.8 61 4.8 40.7
07:50 1015 29.97 844 24.92 12.6 54.6 60 5 41
07:55 1015 29.97 844 24.92 13 55.4 59 5.3 41.5
08:00 1015 29.97 844 24.92 12.7 54.8 60 5.2 41.3
08:05 1015 29.97 844 24.92 12.7 54.8 61 5.4 41.6
08:10 1015 29.97 844 24.92 13.1 55.6 60 5.6 42
08:15 1015 29.97 844 24.92 13.4 56 58 5.4 41.7
08:20 1015 29.97 844 24.92 13.7 56.6 56 5 41
08:25 1015 29.97 844 24.92 14.1 57.4 55 5.3 41.6
08:30 1015 29.97 844 24.92 14.6 58.3 53 5.2 41.4
08:35 1015 29.97 844 24.92 15.4 59.7 49 4.8 40.7
08:40 1015 29.97 844 24.92 16.3 61.3 45 4.4 40
08:45 1015 29.97 844 24.92 16.6 61.9 44 4.5 40.1
08:50 1015 29.97 844 24.92 16.6 61.9 45 4.6 40.2
08:55 1015 29.97 844 24.92 17.1 62.8 43 4.5 40.1
09:00 1015 29.97 844 24.92 17.9 64.2 40 4.2 39.5
09:05 1015 29.97 844 24.92 17.6 63.8 43 4.9 40.8
09:10 1015 29.97 844 24.92 16.9 62.4 43 4.2 39.6
09:15 1015 29.97 844 24.92 17.8 64.1 43 5.1 41.3
09:20 1015 29.97 844 24.92 18.3 64.9 43 5.7 42.2
09:25 1015 29.97 844 24.92 18.6 65.4 42 5.4 41.7
09:30 1015 29.97 844 24.92 18.3 64.9 45 6.2 43.2
09:35 1015 29.97 844 24.92 18.2 64.8 44 5.8 42.4
09:40 1015 29.97 844 24.92 17.8 64.1 45 5.8 42.4
09:45 1015 29.97 844 24.92 17.3 63.1 46 5.6 42.1
09:50 1015 29.97 844 24.92 17.9 64.2 46 6.1 43
09:55 1015 29.97 844 24.92 18.3 64.9 46 6.7 44.1
10:00 1015 29.97 844 24.92 18.6 65.4 43 5.9 42.6
10:05 1015 29.97 844 24.92 19.3 66.7 39 5.1 41.1
10:10 1015 29.97 844 24.92 18.3 64.9 43 5.4 41.8
10:15 1015 29.97 844 24.92 18.2 64.7 42 5.1 41.2
10:20 1015 29.97 844 24.92 18.4 65 41 5.2 41.3
10:25 1015 29.97 844 24.92 19.2 66.5 36 4 39.2
10:30 1015 29.97 844 24.92 20 67.9 37 5.1 41.1
10:35 1015 29.97 844 24.92 20.4 68.8 35 4.6 40.2
10:40 1015 29.97 844 24.92 19.9 67.8 36 4.5 40.1
10:45 1015 29.97 844 24.92 20 68 33 3.5 38.4
10:50 1015 29.97 844 24.92 20.3 68.6 34 4 39.2
10:55 1015 29.97 844 24.92 20.2 68.4 33 3.5 38.3
11:00 1014 29.94 844 24.92 20.3 68.5 33 3.5 38.4
11:05 1014 29.94 844 24.92 20.4 68.6 33 3.8 38.9
11:10 1014 29.94 844 24.92 19.9 67.8 34 3.9 39
11:15 1014 29.94 844 24.92 20.7 69.2 34 4.3 39.7
11:20 1014 29.94 844 24.92 21 69.9 32 4 39.2
11:25 1014 29.94 843 24.89 20.6 69.1 34 4.6 40.2
11:30 1014 29.94 843 24.89 20.9 69.5 33 4.2 39.5
11:35 1014 29.94 843 24.89 20.5 68.8 33 4 39.2
11:40 1014 29.94 843 24.89 20.8 69.4 33 4.1 39.4
11:45 1014 29.94 843 24.89 20.6 69 33 4.1 39.3
11:50 1014 29.94 843 24.89 20.2 68.4 35 4.5 40.1
11:55 1014 29.94 843 24.89 20.4 68.7 34 4 39.2
12:00 1014 29.94 843 24.89 21.5 70.7 31 4 39.2
12:05 1014 29.94 843 24.89 21 69.8 31 3.4 38.1
12:10 1014 29.94 843 24.89 20.9 69.7 32 3.9 39.1
12:15 1014 29.94 843 24.89 21.8 71.2 32 4.4 39.9
12:20 1014 29.94 843 24.89 21.5 70.6 32 4.1 39.3
12:25 1013 29.91 843 24.89 21.4 70.6 32 4.3 39.7
12:30 1013 29.91 843 24.89 21.2 70.2 31 3.8 38.9
12:35 1013 29.91 843 24.89 21.5 70.8 30 3.6 38.4
12:40 1013 29.91 842 24.86 22 71.6 30 3.9 39.1
12:45 1013 29.91 842 24.86 22.7 72.8 29 3.9 39.1
12:50 1013 29.91 842 24.86 22.7 72.8 28 3.6 38.5
12:55 1013 29.91 842 24.86 22 71.5 29 3.2 37.7
13:00 1013 29.91 842 24.86 22.7 72.8 28 3.3 37.9
13:05 1013 29.91 842 24.86 23 73.4 28 3.5 38.4
13:10 1013 29.91 842 24.86 23.1 73.6 28 3.6 38.6
13:15 1013 29.91 842 24.86 23.7 74.7 25 2.8 37.1
13:20 1013 29.91 842 24.86 23.7 74.6 25 2.6 36.7
13:25 1012 29.88 842 24.86 24.4 75.8 24 2.8 37.1
13:30 1012 29.88 842 24.86 25 77 23 2.6 36.7
13:35 1012 29.88 841 24.83 25.1 77.2 23 2.5 36.4
13:40 1012 29.88 841 24.83 24.2 75.5 24 2.6 36.7
13:45 1012 29.88 841 24.83 25.2 77.4 22 2.1 35.8
13:50 1012 29.88 841 24.83 24.5 76.2 24 3 37.4
13:55 1012 29.88 841 24.83 25.4 77.7 23 2.8 37
14:00 1012 29.88 841 24.83 24.6 76.3 24 2.7 36.9
14:05 1012 29.88 841 24.83 24.6 76.3 25 3.4 38.1
14:10 1011 29.85 841 24.83 24.3 75.8 24 2.8 37
14:15 1011 29.85 841 24.83 24.5 76.2 24 2.9 37.2
14:20 1011 29.85 840 24.81 25.9 78.7 23 3.4 38.1
14:25 1011 29.85 840 24.81 25.9 78.5 24 3.9 38.9
14:30 1011 29.85 840 24.81 24.7 76.4 25 3.6 38.4
14:35 1011 29.85 840 24.81 24.1 75.4 26 3.7 38.6
14:40 1011 29.85 840 24.81 23.5 74.3 27 3.5 38.2
14:45 1011 29.85 840 24.81 23.8 74.8 26 3.2 37.7
14:50 1011 29.85 840 24.81 23.9 75 25 3.1 37.5
14:55 1011 29.85 840 24.81 24.2 75.6 25 3 37.5
15:00 1011 29.85 840 24.81 24.7 76.5 24 3.3 37.9
15:05 1011 29.85 840 24.81 24.2 75.5 25 3.1 37.6
15:10 1011 29.85 840 24.81 24.3 75.7 25 3.2 37.8
15:15 1011 29.85 840 24.81 24.1 75.3 27 4 39.2
15:20 1010 29.83 840 24.81 23.7 74.7 27 4 39.1
15:25 1010 29.83 840 24.81 24.1 75.3 27 4 39.1
15:30 1010 29.83 839 24.78 24.6 76.2 27 4.5 40.1
15:35 1010 29.83 839 24.78 24.4 76 30 5.9 42.6
15:40 1010 29.83 839 24.78 23.9 75 29 4.9 40.8
15:45 1010 29.83 839 24.78 24.2 75.6 26 4 39.1
15:50 1010 29.83 839 24.78 24.4 75.8 26 3.8 38.9
15:55 1010 29.83 839 24.78 24.6 76.2 26 4.2 39.6
16:00 1010 29.83 839 24.78 24.3 75.8 27 4.5 40.1
16:05 1010 29.83 839 24.78 23.7 74.7 29 4.8 40.6
16:10 1010 29.83 839 24.78 23.2 73.8 29 4.5 40.2
16:15 1010 29.83 839 24.78 23.3 73.9 30 4.8 40.7
16:20 1009 29.8 839 24.78 23.2 73.8 29 4.4 40
16:25 1009 29.8 839 24.78 23 73.4 29 4.4 40
16:30 1009 29.8 838 24.75 22.7 72.8 30 4.2 39.5
16:35 1009 29.8 838 24.75 22.5 72.4 30 4.3 39.8
16:40 1009 29.8 838 24.75 22.4 72.3 32 5.1 41.2
16:45 1009 29.8 838 24.75 22.2 71.9 31 4.6 40.3
16:50 1009 29.8 838 24.75 22.4 72.4 30 4.1 39.4
16:55 1009 29.8 838 24.75 22.3 72.1 31 4.6 40.2
17:00 1009 29.8 838 24.75 22.1 71.8 31 4.4 39.8
17:05 1009 29.8 838 24.75 22.2 71.9 31 4.5 40.1
17:10 1009 29.8 838 24.75 22 71.6 30 4 39.2
17:15 1009 29.8 838 24.75 22.2 72 31 4.4 39.9
17:20 1009 29.8 838 24.75 22.1 71.8 31 4.4 40
17:25 1008 29.77 838 24.75 22 71.6 33 5 41
17:30 1008 29.77 837 24.72 21.8 71.2 34 5.5 42
17:35 1008 29.77 838 24.75 22.4 72.3 33 5.6 42
17:40 1008 29.77 838 24.75 22.5 72.5 35 6.4 43.5
17:45 1008 29.77 838 24.75 22.2 71.9 36 6.7 44
17:50 1008 29.77 838 24.75 21.6 71 39 7.3 45.2
17:55 1008 29.77 838 24.75 20.7 69.3 40 6.6 43.9
18:00 1008 29.77 838 24.75 20.5 68.9 41 7.1 44.7
18:05 1009 29.8 838 24.75 20.2 68.4 42 7 44.6
18:10 1009 29.8 838 24.75 20.2 68.3 41 6.5 43.7
18:15 1009 29.8 838 24.75 20.2 68.4 42 6.9 44.5
18:20 1009 29.8 838 24.75 20.2 68.4 42 7 44.5
18:25 1009 29.8 838 24.75 20.1 68.1 44 7.7 45.9
18:30 1009 29.8 839 24.78 19.8 67.7 46 8 46.4
18:35 1010 29.83 839 24.78 19.4 67 53 9.6 49.3
18:40 1009 29.8 839 24.78 18.7 65.7 62 11.4 52.4
18:45 1009 29.8 839 24.78 17.7 63.8 64 10.8 51.5
18:50 1010 29.83 839 24.78 17.2 62.9 65 10.7 51.3
18:55 1010 29.83 839 24.78 17 62.5 62 9.8 49.7
19:00 1010 29.83 839 24.78 16.9 62.3 64 10.1 50.2
19:05 1010 29.83 839 24.78 16.9 62.5 62 9.8 49.6
19:10 1010 29.83 839 24.78 17 62.7 63 10 50
19:15 1010 29.83 839 24.78 16.8 62.2 64 10.1 50.1
19:20 1010 29.83 839 24.78 16.5 61.6 67 10.5 50.9
19:25 1010 29.83 839 24.78 16.1 60.9 67 9.9 49.8
19:30 1010 29.83 840 24.81 15.6 60.1 68 9.8 49.6
19:35 1010 29.83 839 24.78 15.5 59.8 68 9.7 49.4
19:40 1010 29.83 839 24.78 15.4 59.8 68 9.5 49.1
19:45 1010 29.83 839 24.78 15.4 59.6 67 9.4 48.9
19:50 1010 29.83 839 24.78 15.3 59.5 68 9.5 49.2
19:55 1010 29.83 839 24.78 15.3 59.5 67 9.3 48.8
20:00 1010 29.83 839 24.78 15.3 59.6 67 9.4 48.9
20:05 1010 29.83 839 24.78 15.4 59.8 67 9.3 48.8
20:10 1010 29.83 839 24.78 15.2 59.4 68 9.5 49.1
20:15 1011 29.85 840 24.81 14.9 58.8 72 9.9 49.8
20:20 1012 29.88 841 24.83 14.2 57.5 75 9.9 49.8
20:25 1012 29.88 841 24.83 13.7 56.7 77 9.9 49.7
20:30 1012 29.88 841 24.83 13.2 55.8 84 10.5 50.9
20:35 1011 29.85 840 24.81 12.8 55.1 85 10.4 50.7
20:40 1011 29.85 840 24.81 12.7 54.9 85 10.3 50.6
20:45 1011 29.85 841 24.83 12.7 54.8 86 10.4 50.7
20:50 1011 29.85 840 24.81 12.6 54.7 87 10.4 50.8
20:55 1011 29.85 840 24.81 12.7 54.9 87 10.7 51.2
21:00 1012 29.88 841 24.83 12.7 54.9 87 10.6 51.1
21:05 1012 29.88 842 24.86 12.2 53.9 87 10.1 50.2
21:10 1012 29.88 841 24.83 12 53.6 89 10.3 50.5
21:15 1011 29.85 841 24.83 11.8 53.3 90 10.2 50.4
21:20 1011 29.85 841 24.83 11.6 52.9 91 10.2 50.3
21:25 1012 29.88 841 24.83 11.7 53 89 9.9 49.9
21:30 1012 29.88 841 24.83 11.6 52.9 89 9.9 49.9
21:35 1012 29.88 842 24.86 11.6 52.8 90 9.9 49.9
21:40 1013 29.91 842 24.86 11.5 52.8 89 9.8 49.6
21:45 1013 29.91 842 24.86 11.6 52.9 88 9.8 49.6
21:50 1013 29.91 842 24.86 11.5 52.6 90 9.9 49.8
21:55 1013 29.91 842 24.86 11.4 52.6 91 10 50.1
22:00 1013 29.91 842 24.86 11.3 52.4 92 10 50.1
22:05 1013 29.91 843 24.89 11.2 52.1 92 10 50
22:10 1014 29.94 843 24.89 11.1 52 93 10 50
22:15 1014 29.94 843 24.89 11 51.9 92 9.8 49.7
22:20 1014 29.94 843 24.89 11.1 51.9 91 9.7 49.5
22:25 1014 29.94 843 24.89 11 51.7 92 9.7 49.4
22:30 1014 29.94 843 24.89 10.8 51.4 93 9.7 49.4
22:35 1014 29.94 843 24.89 10.6 51 94 9.6 49.2
22:40 1014 29.94 843 24.89 10.4 50.8 94 9.5 49.1
22:45 1014 29.94 843 24.89 10.4 50.8 94 9.6 49.2
22:50 1014 29.94 843 24.89 10.4 50.8 94 9.6 49.2
22:55 1014 29.94 843 24.89 10.5 50.8 93 9.4 49
23:00 1014 29.94 843 24.89 10.4 50.8 93 9.3 48.8
23:05 1014 29.94 843 24.89 10.2 50.3 92 9 48.1
23:10 1014 29.94 843 24.89 10 50 89 8.4 47.1
23:15 1014 29.94 843 24.89 10 50 88 8.1 46.6
23:20 1014 29.94 843 24.89 9.8 49.7 89 8 46.5
23:25 1014 29.94 843 24.89 9.8 49.6 89 8 46.4
23:30 1014 29.94 843 24.89 9.7 49.5 90 8.1 46.6
23:35 1014 29.94 843 24.89 9.6 49.2 90 8.1 46.5
23:40 1014 29.94 843 24.89 9.6 49.2 91 8.2 46.8
23:45 1014 29.94 843 24.89 9.6 49.2 91 8.2 46.8
23:50 1014 29.94 843 24.89 9.5 49.1 92 8.2 46.8
23:55 1014 29.94 843 24.89 9.5 49.1 92 8.2 46.8
24:00 1014 29.94 843 24.89 9.3 48.8 90 7.7 45.9